Time;durP1;ratioP1;P1;durP2;ratioP2;P2;SDS_P1;SDS_P2;PMS_P1;PMS_P2;Temp;Humidity;BMP_temperature;BMP_pressure;BME280_temperature;BME280_humidity;BME280_pressure;Samples;Min_cycle;Max_cycle;Signal;HPM_P1;HPM_P2
2022/08/04 00:00:04;;;;;;;0.20;0.20;;;19.40;88.40;;;;;;5031301;28;20171;-75
2022/08/04 00:02:57;;;;;;;0.37;0.37;;;19.40;76.60;;;;;;5034413;28;20191;-75
2022/08/04 00:05:33;;;;;;;0.30;0.30;;;19.50;84.70;;;;;;5050355;28;20632;-75
2022/08/04 00:08:37;;;;;;;0.40;0.40;;;19.60;78.90;;;;;;5034336;28;20190;-75
2022/08/04 00:11:05;;;;;;;0.30;0.30;;;19.50;75.00;;;;;;5031394;28;20266;-74
2022/08/04 00:13:40;;;;;;;0.40;0.40;;;19.40;64.20;;;;;;5037808;28;20290;-75
2022/08/04 00:16:08;;;;;;;0.40;0.40;;;19.40;46.50;;;;;;5043696;28;20544;-75
2022/08/04 00:18:44;;;;;;;0.30;0.30;;;19.40;61.30;;;;;;5050003;28;20190;-75
2022/08/04 00:21:11;;;;;;;0.40;0.40;;;19.40;57.50;;;;;;5049724;28;20187;-74
2022/08/04 00:23:38;;;;;;;0.40;0.40;;;19.30;70.40;;;;;;5038291;28;20227;-75
2022/08/04 00:26:04;;;;;;;0.30;0.30;;;19.30;67.90;;;;;;5044270;28;20194;-75
2022/08/04 00:28:30;;;;;;;0.30;0.30;;;19.30;68.90;;;;;;5051312;28;20262;-75
2022/08/04 00:30:56;;;;;;;0.30;0.30;;;19.20;99.90;;;;;;5050861;28;20198;-75
2022/08/04 00:33:22;;;;;;;0.30;0.30;;;19.10;99.90;;;;;;5042890;28;20586;-74
2022/08/04 00:35:49;;;;;;;0.30;0.30;;;19.00;99.90;;;;;;5031535;28;20633;-76
2022/08/04 00:38:16;;;;;;;0.40;0.40;;;19.00;99.90;;;;;;5031516;28;20195;-75
2022/08/04 00:41:12;;;;;;;0.30;0.30;;;18.90;99.90;;;;;;5045093;28;20175;-76
2022/08/04 00:44:04;;;;;;;0.30;0.30;;;18.90;99.90;;;;;;5042607;28;20211;-76
2022/08/04 00:46:32;;;;;;;0.30;0.30;;;18.70;99.90;;;;;;5036649;28;20250;-75
2022/08/04 00:49:24;;;;;;;0.40;0.40;;;18.90;99.90;;;;;;5031163;28;20187;-75
2022/08/04 00:52:17;;;;;;;0.40;0.40;;;18.90;99.90;;;;;;5034067;28;20179;-76
2022/08/04 00:55:04;;;;;;;0.30;0.30;;;18.90;99.90;;;;;;5043965;28;20183;-76
2022/08/04 00:58:10;;;;;;;0.30;0.30;;;18.90;99.90;;;;;;5034791;28;20817;-76
2022/08/04 01:00:45;;;;;;;0.40;0.40;;;18.80;99.90;;;;;;5034579;28;20186;-76
2022/08/04 01:03:28;;;;;;;0.30;0.30;;;18.80;99.90;;;;;;5037612;28;20214;-76
2022/08/04 01:06:10;;;;;;;0.30;0.30;;;18.80;99.90;;;;;;5038572;28;20202;-75
2022/08/04 01:08:54;;;;;;;0.40;0.40;;;18.80;99.90;;;;;;5038956;28;20183;-76
2022/08/04 01:11:36;;;;;;;0.30;0.30;;;18.70;99.90;;;;;;5039232;28;20268;-76
2022/08/04 01:14:21;;;;;;;0.30;0.30;;;18.60;99.90;;;;;;5042272;28;20203;-76
2022/08/04 01:17:25;;;;;;;0.30;0.30;;;18.60;99.90;;;;;;5045011;28;20230;-77
2022/08/04 01:20:01;;;;;;;0.40;0.40;;;18.50;99.90;;;;;;5002394;28;20268;-77
2022/08/04 01:22:32;;;;;;;0.50;0.50;;;18.50;99.90;;;;;;5036920;28;20273;-77
2022/08/04 01:25:10;;;;;;;0.30;0.30;;;18.50;99.90;;;;;;5043111;28;20238;-76
2022/08/04 01:28:11;;;;;;;0.30;0.30;;;18.50;99.90;;;;;;5049243;28;20210;-76
2022/08/04 01:30:41;;;;;;;0.30;0.30;;;18.60;99.90;;;;;;5047502;28;20262;-76
2022/08/04 01:33:13;;;;;;;0.37;0.37;;;18.50;99.90;;;;;;5042388;28;20234;-76
2022/08/04 01:35:47;;;;;;;0.40;0.40;;;18.40;99.90;;;;;;5044151;28;20654;-76
2022/08/04 01:38:23;;;;;;;0.30;0.30;;;18.50;99.90;;;;;;5053988;28;20291;-77
2022/08/04 01:40:55;;;;;;;0.40;0.40;;;18.50;99.90;;;;;;5053391;28;20182;-77
2022/08/04 01:43:22;;;;;;;0.30;0.30;;;18.50;99.90;;;;;;5040565;28;20217;-76
2022/08/04 01:45:58;;;;;;;0.40;0.40;;;18.40;99.90;;;;;;5050109;28;20188;-76
2022/08/04 01:48:25;;;;;;;0.30;0.30;;;18.40;99.90;;;;;;5034309;28;20199;-77
2022/08/04 01:50:52;;;;;;;0.30;0.30;;;18.40;99.90;;;;;;5035095;28;20195;-76
2022/08/04 01:53:20;;;;;;;0.30;0.30;;;18.40;99.90;;;;;;5036802;28;20200;-76
2022/08/04 01:55:51;;;;;;;0.40;0.40;;;18.40;99.90;;;;;;5045148;28;20171;-76
2022/08/04 01:58:20;;;;;;;0.40;0.40;;;18.30;99.90;;;;;;5051901;28;20266;-76
2022/08/04 02:01:01;;;;;;;0.30;0.30;;;18.20;99.90;;;;;;5033768;28;20180;-77
2022/08/04 02:03:27;;;;;;;0.30;0.30;;;18.20;99.90;;;;;;5037196;28;20215;-76
2022/08/04 02:06:16;;;;;;;0.40;0.40;;;18.20;99.90;;;;;;5036981;28;20218;-77
2022/08/04 02:08:59;;;;;;;0.30;0.30;;;18.10;99.90;;;;;;5041304;28;20210;-76
2022/08/04 02:11:24;;;;;;;0.37;0.37;;;18.00;99.90;;;;;;5053786;28;20654;-76
2022/08/04 02:13:53;;;;;;;0.30;0.30;;;18.10;99.90;;;;;;5050393;28;20203;-77
2022/08/04 02:16:24;;;;;;;0.40;0.40;;;18.00;99.90;;;;;;5046869;28;20208;-77
2022/08/04 02:19:26;;;;;;;0.40;0.40;;;17.90;99.90;;;;;;5033830;28;20187;-77
2022/08/04 02:22:00;;;;;;;0.30;0.30;;;17.90;99.90;;;;;;5033685;28;20183;-77
2022/08/04 02:24:29;;;;;;;0.40;0.40;;;17.80;99.90;;;;;;5048683;28;20214;-77
2022/08/04 02:26:56;;;;;;;0.40;0.40;;;17.80;99.90;;;;;;5045116;28;20633;-77
2022/08/04 02:29:31;;;;;;;0.30;0.30;;;17.90;99.90;;;;;;5033056;28;20191;-77
2022/08/04 02:32:00;;;;;;;0.37;0.37;;;17.90;99.90;;;;;;5033350;28;20328;-78
2022/08/04 02:34:47;;;;;;;0.30;0.30;;;17.80;99.90;;;;;;5051150;28;20179;-77
2022/08/04 02:37:15;;;;;;;0.30;0.30;;;17.80;99.90;;;;;;5053512;28;20178;-77
2022/08/04 02:39:43;;;;;;;0.30;0.30;;;17.80;99.90;;;;;;5052648;28;20187;-77
2022/08/04 02:42:12;;;;;;;0.40;0.40;;;17.80;99.90;;;;;;5051926;28;20175;-77
2022/08/04 02:44:38;;;;;;;0.30;0.30;;;17.90;99.90;;;;;;5051054;28;20207;-77
2022/08/04 02:47:06;;;;;;;0.30;0.30;;;17.80;99.90;;;;;;5053318;28;20207;-77
2022/08/04 02:49:35;;;;;;;0.30;0.30;;;17.80;99.90;;;;;;5052654;28;20183;-77
2022/08/04 02:52:01;;;;;;;0.50;0.50;;;17.70;99.90;;;;;;5051938;28;20726;-77
2022/08/04 02:54:38;;;;;;;0.40;0.40;;;17.60;99.90;;;;;;5051178;28;20179;-77
2022/08/04 02:57:07;;;;;;;0.40;0.40;;;17.50;99.90;;;;;;5052960;28;20175;-77
2022/08/04 02:59:59;;;;;;;0.40;0.40;;;17.40;99.90;;;;;;5052301;28;20185;-77
2022/08/04 03:02:43;;;;;;;0.30;0.30;;;17.40;99.90;;;;;;5050788;28;20225;-77
2022/08/04 03:05:23;;;;;;;0.30;0.30;;;17.30;99.90;;;;;;5052382;28;20191;-77
2022/08/04 03:07:52;;;;;;;0.30;0.30;;;17.40;99.90;;;;;;5052765;28;20189;-77
2022/08/04 03:10:47;;;;;;;0.33;0.33;;;17.40;99.90;;;;;;5052365;28;20183;-77
2022/08/04 03:13:38;;;;;;;0.30;0.30;;;17.50;99.90;;;;;;5050046;28;20195;-77
2022/08/04 03:16:34;;;;;;;0.30;0.30;;;17.30;99.90;;;;;;5052182;28;20613;-77
2022/08/04 03:19:07;;;;;;;0.40;0.40;;;17.30;99.90;;;;;;5052411;28;20652;-77
2022/08/04 03:22:02;;;;;;;0.30;0.30;;;17.30;99.90;;;;;;5052618;28;20191;-77
2022/08/04 03:24:33;;;;;;;0.40;0.40;;;17.40;99.90;;;;;;5049987;28;20242;-78
2022/08/04 03:27:35;;;;;;;0.40;0.40;;;17.40;99.90;;;;;;5052658;28;20171;-77
2022/08/04 03:30:28;;;;;;;0.43;0.43;;;17.40;99.90;;;;;;5051955;28;20202;-77
2022/08/04 03:33:36;;;;;;;0.30;0.30;;;17.40;99.90;;;;;;5037195;28;20218;-77
2022/08/04 03:36:38;;;;;;;0.40;0.40;;;17.40;99.90;;;;;;5046543;28;20175;-77
2022/08/04 03:39:12;;;;;;;0.30;0.30;;;17.20;99.90;;;;;;5052225;28;20195;-76
2022/08/04 03:41:50;;;;;;;0.40;0.40;;;17.20;99.90;;;;;;5052178;28;20232;-76
2022/08/04 03:44:41;;;;;;;0.40;0.40;;;17.20;99.90;;;;;;5049516;28;20703;-76
2022/08/04 03:47:15;;;;;;;0.40;0.40;;;17.10;99.90;;;;;;5031977;28;20649;-76
2022/08/04 03:50:00;;;;;;;0.37;0.37;;;17.10;99.90;;;;;;5031881;28;20168;-76
2022/08/04 03:53:14;;;;;;;0.40;0.40;;;17.00;99.90;;;;;;5034124;28;20206;-76
2022/08/04 03:56:25;;;;;;;0.40;0.40;;;16.90;99.90;;;;;;5034259;28;20720;-75
2022/08/04 03:59:21;;;;;;;0.30;0.30;;;16.90;99.90;;;;;;5051503;28;20640;-76
2022/08/04 04:02:07;;;;;;;0.30;0.30;;;16.90;99.90;;;;;;5051522;28;20192;-76
2022/08/04 04:04:59;;;;;;;0.37;0.37;;;16.90;99.90;;;;;;5050078;28;20271;-76
2022/08/04 04:08:00;;;;;;;0.30;0.30;;;16.80;99.90;;;;;;5051774;28;20258;-76
2022/08/04 04:10:51;;;;;;;0.40;0.40;;;16.90;99.90;;;;;;5051503;28;20262;-76
2022/08/04 04:13:36;;;;;;;0.40;0.40;;;16.90;99.90;;;;;;5049009;28;20191;-77
2022/08/04 04:16:37;;;;;;;0.40;0.40;;;17.00;99.90;;;;;;5050887;28;20179;-76
2022/08/04 04:19:32;;;;;;;0.40;0.40;;;16.90;99.90;;;;;;5051399;28;20183;-76
2022/08/04 04:22:27;;;;;;;0.50;0.50;;;17.00;99.90;;;;;;5050369;28;20606;-77
2022/08/04 04:25:02;;;;;;;0.43;0.43;;;17.00;99.90;;;;;;5035990;28;20199;-76
2022/08/04 04:27:49;;;;;;;0.30;0.30;;;17.00;99.90;;;;;;5051504;28;20170;-76
2022/08/04 04:30:29;;;;;;;0.50;0.50;;;16.90;99.90;;;;;;5051033;28;20175;-76
2022/08/04 04:33:16;;;;;;;0.30;0.30;;;17.00;99.90;;;;;;5041719;28;20199;-77
2022/08/04 04:36:00;;;;;;;0.40;0.40;;;17.00;99.90;;;;;;5048056;28;20202;-76
2022/08/04 04:38:56;;;;;;;0.40;0.40;;;17.10;99.90;;;;;;5050792;28;20223;-76
2022/08/04 04:41:43;;;;;;;0.37;0.37;;;17.00;99.90;;;;;;5046739;28;20167;-76
2022/08/04 04:44:41;;;;;;;0.40;0.40;;;17.20;99.90;;;;;;5048697;28;20625;-76
2022/08/04 04:47:30;;;;;;;0.40;0.40;;;17.50;99.90;;;;;;5031265;28;20184;-76
2022/08/04 04:50:14;;;;;;;0.30;0.30;;;17.70;99.90;;;;;;5030592;28;20175;-76
2022/08/04 04:52:57;;;;;;;0.50;0.50;;;17.40;99.90;;;;;;5040822;28;20615;-77
2022/08/04 04:55:27;;;;;;;0.50;0.50;;;17.30;99.90;;;;;;5050300;28;20658;-76
2022/08/04 04:57:57;;;;;;;0.30;0.30;;;17.30;99.90;;;;;;5051006;28;20504;-76
2022/08/04 05:00:33;;;;;;;0.40;0.40;;;17.50;99.90;;;;;;5050734;28;20179;-76
2022/08/04 05:03:07;;;;;;;0.30;0.30;;;17.70;99.90;;;;;;5048607;28;20206;-76
2022/08/04 05:05:58;;;;;;;0.33;0.33;;;17.80;99.90;;;;;;5050546;28;20232;-77
2022/08/04 05:08:35;;;;;;;0.30;0.30;;;18.30;99.90;;;;;;5043085;28;20238;-77
2022/08/04 05:11:24;;;;;;;0.30;0.30;;;18.40;99.90;;;;;;5043053;28;20179;-77
2022/08/04 05:14:00;;;;;;;0.30;0.30;;;18.40;99.90;;;;;;5050734;28;20541;-76
2022/08/04 05:16:36;;;;;;;0.40;0.40;;;18.40;93.40;;;;;;5051153;28;20282;-77
2022/08/04 05:19:32;;;;;;;0.40;0.40;;;18.40;99.90;;;;;;5050470;28;20182;-76
2022/08/04 05:22:06;;;;;;;0.40;0.40;;;18.40;99.90;;;;;;5051244;28;20193;-76
2022/08/04 05:24:36;;;;;;;0.30;0.30;;;18.50;99.90;;;;;;5051165;28;20218;-76
2022/08/04 05:27:10;;;;;;;0.30;0.30;;;18.80;92.70;;;;;;5051179;28;20175;-77
2022/08/04 05:29:41;;;;;;;0.30;0.30;;;18.70;89.60;;;;;;5050905;28;20175;-76
2022/08/04 05:32:15;;;;;;;0.30;0.30;;;18.70;99.90;;;;;;5050991;28;20179;-77
2022/08/04 05:34:48;;;;;;;0.40;0.40;;;18.80;99.90;;;;;;5051141;28;20172;-76
2022/08/04 05:37:19;;;;;;;0.30;0.30;;;18.80;99.90;;;;;;5050525;28;20179;-76
2022/08/04 05:39:52;;;;;;;0.33;0.33;;;18.90;99.90;;;;;;5050412;28;20199;-77
2022/08/04 05:42:19;;;;;;;0.30;0.30;;;18.90;92.00;;;;;;5051002;28;20206;-76
2022/08/04 05:44:45;;;;;;;0.40;0.40;;;18.90;97.90;;;;;;5051088;28;20575;-76
2022/08/04 05:47:12;;;;;;;0.40;0.40;;;19.10;95.50;;;;;;5050423;28;20180;-76
2022/08/04 05:49:40;;;;;;;0.30;0.30;;;19.10;97.30;;;;;;5052223;28;20175;-76
2022/08/04 05:52:06;;;;;;;0.30;0.30;;;19.30;52.70;;;;;;5054370;28;20254;-76
2022/08/04 05:54:34;;;;;;;0.33;0.33;;;19.30;31.70;;;;;;5054765;28;20651;-76
2022/08/04 05:57:03;;;;;;;0.30;0.30;;;19.40;39.70;;;;;;5054555;28;20179;-76
2022/08/04 05:59:30;;;;;;;0.40;0.40;;;19.50;42.80;;;;;;5053780;28;20206;-76
2022/08/04 06:01:59;;;;;;;0.40;0.40;;;19.50;27.20;;;;;;5054133;28;20257;-76
2022/08/04 06:04:33;;;;;;;0.30;0.30;;;19.60;9.80;;;;;;5053987;28;20207;-76
2022/08/04 06:06:59;;;;;;;0.40;0.40;;;19.90;4.50;;;;;;5054164;28;20556;-76
2022/08/04 06:09:25;;;;;;;0.40;0.40;;;20.00;1.00;;;;;;5053758;28;20198;-77
2022/08/04 06:11:52;;;;;;;0.40;0.40;;;20.20;1.00;;;;;;5054162;28;20206;-76
2022/08/04 06:14:21;;;;;;;0.30;0.30;;;20.30;1.00;;;;;;5053980;28;20183;-76
2022/08/04 06:16:49;;;;;;;0.30;0.30;;;20.70;1.00;;;;;;5054016;28;20171;-76
2022/08/04 06:19:17;;;;;;;0.30;0.30;;;20.90;1.00;;;;;;5053393;28;20550;-77
2022/08/04 06:21:47;;;;;;;0.30;0.30;;;20.70;1.00;;;;;;5054042;28;20932;-76
2022/08/04 06:24:17;;;;;;;0.30;0.30;;;21.20;1.00;;;;;;5053973;28;20359;-76
2022/08/04 06:26:45;;;;;;;0.30;0.30;;;21.50;1.00;;;;;;5054072;28;20183;-76
2022/08/04 06:29:19;;;;;;;0.30;0.30;;;21.40;1.00;;;;;;5053528;28;20186;-76
2022/08/04 06:31:56;;;;;;;0.30;0.30;;;21.70;1.00;;;;;;5053679;28;20355;-76
2022/08/04 06:34:24;;;;;;;0.30;0.30;;;21.70;1.00;;;;;;5053818;28;20186;-76
2022/08/04 06:36:50;;;;;;;0.20;0.20;;;21.80;99.90;;;;;;5053638;28;20604;-76
2022/08/04 06:39:17;;;;;;;0.40;0.40;;;21.80;1.00;;;;;;5053025;28;20585;-76
2022/08/04 06:41:43;;;;;;;0.30;0.30;;;22.00;1.00;;;;;;5053501;28;20230;-76
2022/08/04 06:44:11;;;;;;;0.30;0.30;;;22.10;1.00;;;;;;5053171;28;20622;-76
2022/08/04 06:46:40;;;;;;;0.30;0.30;;;22.20;85.00;;;;;;5053499;28;20260;-76
2022/08/04 06:49:06;;;;;;;0.37;0.37;;;22.40;2.80;;;;;;5052879;28;20241;-76
2022/08/04 06:51:35;;;;;;;0.30;0.30;;;22.60;86.10;;;;;;5053378;28;20187;-76
2022/08/04 06:54:00;;;;;;;0.30;0.30;;;22.90;99.90;;;;;;5053278;28;20269;-76
2022/08/04 06:56:28;;;;;;;0.30;0.30;;;22.80;1.00;;;;;;5053059;28;20218;-76
2022/08/04 06:58:54;;;;;;;0.30;0.30;;;23.00;1.00;;;;;;5052543;28;20178;-76
2022/08/04 07:01:21;;;;;;;0.30;0.30;;;23.10;1.00;;;;;;5052862;28;20206;-76
2022/08/04 07:03:48;;;;;;;0.30;0.30;;;23.10;1.00;;;;;;5052983;28;20646;-76
2022/08/04 07:06:14;;;;;;;0.40;0.40;;;23.40;1.00;;;;;;5053044;28;20198;-76
2022/08/04 07:08:40;;;;;;;0.30;0.30;;;23.50;1.00;;;;;;5052907;28;20174;-76
2022/08/04 07:11:05;;;;;;;0.33;0.33;;;23.60;99.90;;;;;;5052405;28;20178;-76
2022/08/04 07:13:32;;;;;;;0.30;0.30;;;23.80;1.00;;;;;;5052616;28;20711;-76
2022/08/04 07:15:59;;;;;;;0.30;0.30;;;23.90;1.00;;;;;;5052939;28;20199;-76
2022/08/04 07:18:25;;;;;;;0.43;0.43;;;24.10;1.00;;;;;;5052788;28;20179;-77
2022/08/04 07:20:51;;;;;;;0.23;0.23;;;24.30;1.00;;;;;;5052227;28;20249;-76
2022/08/04 07:23:22;;;;;;;0.33;0.33;;;24.30;1.00;;;;;;5052407;28;20276;-76
2022/08/04 07:25:53;;;;;;;0.30;0.30;;;24.50;99.90;;;;;;5052352;28;20228;-76
2022/08/04 07:28:20;;;;;;;0.30;0.30;;;24.60;1.00;;;;;;5052680;28;20200;-77
2022/08/04 07:30:48;;;;;;;0.37;0.37;;;24.80;99.90;;;;;;5052101;28;20175;-76
2022/08/04 07:33:15;;;;;;;0.30;0.30;;;25.10;99.90;;;;;;5052392;28;20191;-76
2022/08/04 07:35:42;;;;;;;0.40;0.40;;;25.40;19.30;;;;;;5052403;28;20171;-76
2022/08/04 07:38:08;;;;;;;0.30;0.30;;;25.70;61.70;;;;;;5052043;28;20191;-76
2022/08/04 07:40:35;;;;;;;0.30;0.30;;;26.00;1.00;;;;;;5051653;28;20197;-76
2022/08/04 07:43:01;;;;;;;0.30;0.30;;;26.30;1.00;;;;;;5052034;28;20683;-76
2022/08/04 07:45:27;;;;;;;0.30;0.30;;;26.60;1.00;;;;;;5052476;28;20393;-76
2022/08/04 07:47:52;;;;;;;0.30;0.30;;;27.30;1.00;;;;;;5052164;28;20171;-77
2022/08/04 07:50:19;;;;;;;0.40;0.40;;;27.90;1.00;;;;;;5051575;28;20175;-75
2022/08/04 07:52:45;;;;;;;0.40;0.40;;;28.50;1.00;;;;;;5051881;28;20195;-75
2022/08/04 07:55:12;;;;;;;0.40;0.40;;;28.90;1.00;;;;;;5051640;28;20171;-75
2022/08/04 07:57:37;;;;;;;0.57;0.57;;;29.20;1.00;;;;;;5051945;28;20179;-74
2022/08/04 08:00:04;;;;;;;0.50;0.50;;;29.10;1.00;;;;;;5051277;28;20228;-75
2022/08/04 08:02:30;;;;;;;0.43;0.43;;;29.00;1.00;;;;;;5051567;28;20207;-76
2022/08/04 08:04:56;;;;;;;0.40;0.40;;;29.60;1.00;;;;;;5051595;28;20552;-75
2022/08/04 08:07:21;;;;;;;0.40;0.40;;;29.30;1.00;;;;;;5052063;28;20260;-75
2022/08/04 08:09:47;;;;;;;0.40;0.40;;;29.70;1.00;;;;;;5051352;28;20258;-75
2022/08/04 08:12:13;;;;;;;0.28;0.28;;;29.80;1.00;;;;;;5051205;28;20197;-75
2022/08/04 08:14:39;;;;;;;0.30;0.30;;;30.10;1.00;;;;;;5051580;28;20182;-76
2022/08/04 08:17:05;;;;;;;0.10;0.10;;;30.30;1.00;;;;;;5051463;28;20178;-76
2022/08/04 08:19:32;;;;;;;0.10;0.10;;;30.40;1.00;;;;;;5051014;28;20201;-76
2022/08/04 08:21:58;;;;;;;0.08;0.08;;;30.50;1.00;;;;;;5051588;28;20194;-76
2022/08/04 08:24:24;;;;;;;0.10;0.10;;;30.60;1.00;;;;;;5051328;28;20210;-75
2022/08/04 08:26:49;;;;;;;0.10;0.10;;;30.80;1.00;;;;;;5051796;28;20244;-76
2022/08/04 08:29:15;;;;;;;0.10;0.10;;;31.30;1.00;;;;;;5051107;28;20564;-77
2022/08/04 08:31:42;;;;;;;0.20;0.20;;;31.40;1.00;;;;;;5051620;28;20202;-76
2022/08/04 08:34:10;;;;;;;0.20;0.20;;;31.60;1.00;;;;;;5051361;28;20199;-76
2022/08/04 08:36:47;;;;;;;0.10;0.10;;;31.20;1.00;;;;;;5051294;28;20628;-76
2022/08/04 08:39:22;;;;;;;0.10;0.10;;;31.20;1.00;;;;;;5050736;28;20301;-76
2022/08/04 08:42:32;;;;;;;0.10;0.10;;;32.00;1.00;;;;;;5051471;28;20193;-76
2022/08/04 08:45:01;;;;;;;0.20;0.20;;;32.50;1.00;;;;;;5051181;28;20218;-75
2022/08/04 08:47:46;;;;;;;0.10;0.10;;;32.50;1.00;;;;;;5051025;28;20254;-76
2022/08/04 08:50:36;;;;;;;0.20;0.20;;;32.50;1.00;;;;;;5050808;28;20175;-76
2022/08/04 08:53:12;;;;;;;0.10;0.10;;;32.70;1.00;;;;;;5051043;28;20202;-75
2022/08/04 08:56:13;;;;;;;0.20;0.20;;;32.30;1.00;;;;;;5051136;28;20193;-76
2022/08/04 08:59:10;;;;;;;0.20;0.20;;;32.70;1.00;;;;;;5051164;28;20174;-76
2022/08/04 09:01:57;;;;;;;0.10;0.10;;;32.70;1.00;;;;;;5022357;28;20517;-75
2022/08/04 09:04:41;;;;;;;0.20;0.20;;;33.40;1.00;;;;;;5051125;28;20268;-76
2022/08/04 09:07:36;;;;;;;0.20;0.20;;;33.50;1.00;;;;;;5051101;28;20209;-76
2022/08/04 09:10:11;;;;;;;0.10;0.10;;;33.60;1.00;;;;;;5050488;28;20201;-76
2022/08/04 09:12:51;;;;;;;0.10;0.10;;;33.10;1.00;;;;;;5051094;28;20195;-75
2022/08/04 09:15:43;;;;;;;0.30;0.30;;;33.60;1.00;;;;;;5051027;28;20172;-75
2022/08/04 09:18:18;;;;;;;0.20;0.20;;;33.70;1.00;;;;;;5050918;28;20183;-75
2022/08/04 09:21:03;;;;;;;0.10;0.10;;;34.10;1.00;;;;;;5050452;28;20178;-75
2022/08/04 09:23:59;;;;;;;0.00;0.00;;;33.90;1.00;;;;;;5052829;28;20211;-76
2022/08/04 09:26:33;;;;;;;0.10;0.10;;;33.80;1.00;;;;;;5054767;28;20179;-75
2022/08/04 09:29:36;;;;;;;0.20;0.20;;;34.20;1.00;;;;;;5054186;28;20170;-76
2022/08/04 09:32:29;;;;;;;0.10;0.10;;;34.50;1.00;;;;;;5054689;28;20748;-75
2022/08/04 09:35:05;;;;;;;0.17;0.17;;;34.90;1.00;;;;;;5054654;28;20182;-76
2022/08/04 09:38:02;;;;;;;0.20;0.20;;;35.00;1.00;;;;;;5054648;28;20175;-76
2022/08/04 09:40:46;;;;;;;0.10;0.10;;;34.70;1.00;;;;;;5054486;28;20199;-75
2022/08/04 09:43:19;;;;;;;0.10;0.10;;;34.60;1.00;;;;;;5054381;28;20191;-76
2022/08/04 09:46:13;;;;;;;0.10;0.10;;;35.10;1.00;;;;;;5054464;28;20266;-74
2022/08/04 09:49:00;;;;;;;0.08;0.08;;;35.40;1.00;;;;;;5054444;28;20179;-75
2022/08/04 09:51:49;;;;;;;0.20;0.20;;;36.00;1.00;;;;;;5054424;28;20547;-74
2022/08/04 09:54:40;;;;;;;0.20;0.20;;;35.40;1.00;;;;;;5054628;28;20195;-76
2022/08/04 09:57:16;;;;;;;0.13;0.13;;;35.80;1.00;;;;;;5054504;28;20752;-76
2022/08/04 10:00:03;;;;;;;0.13;0.13;;;36.50;1.00;;;;;;5053686;28;20179;-76
2022/08/04 10:02:33;;;;;;;0.10;0.10;;;36.20;1.00;;;;;;5054271;28;20231;-76
2022/08/04 10:05:02;;;;;;;0.10;0.10;;;35.90;1.00;;;;;;5054320;28;20400;-75
2022/08/04 10:07:56;;;;;;;0.10;0.10;;;35.80;1.00;;;;;;5053911;28;20179;-76
2022/08/04 10:10:52;;;;;;;0.10;0.10;;;36.00;1.00;;;;;;5053475;28;20183;-75
2022/08/04 10:13:55;;;;;;;0.10;0.10;;;36.20;1.00;;;;;;5054068;28;20203;-76
2022/08/04 10:16:43;;;;;;;0.03;0.03;;;36.30;1.00;;;;;;5053931;28;20179;-76
2022/08/04 10:19:27;;;;;;;0.20;0.20;;;35.80;1.00;;;;;;5053522;28;20207;-76
2022/08/04 10:22:18;;;;;;;0.10;0.10;;;36.30;1.00;;;;;;5053823;28;20178;-75
2022/08/04 10:25:14;;;;;;;0.20;0.20;;;36.30;1.00;;;;;;5053640;28;20234;-76
2022/08/04 10:27:49;;;;;;;0.00;0.00;;;36.50;1.00;;;;;;5053881;28;20179;-76
2022/08/04 10:30:18;;;;;;;0.10;0.10;;;36.40;1.00;;;;;;5053224;28;20205;-75
2022/08/04 10:32:48;;;;;;;0.10;0.10;;;36.40;1.00;;;;;;5053546;28;20679;-76
2022/08/04 10:35:17;;;;;;;0.05;0.05;;;36.50;1.00;;;;;;5052770;28;20187;-76
2022/08/04 10:38:24;;;;;;;0.10;0.10;;;36.70;1.00;;;;;;5053243;28;20226;-76
2022/08/04 10:40:52;;;;;;;0.20;0.20;;;37.10;1.00;;;;;;5052887;28;20197;-75
2022/08/04 10:43:43;;;;;;;0.10;0.10;;;37.40;1.00;;;;;;5053265;28;20203;-76
2022/08/04 10:46:28;;;;;;;0.13;0.13;;;36.50;1.00;;;;;;5053281;28;20178;-76
2022/08/04 10:49:01;;;;;;;0.17;0.17;;;36.40;1.00;;;;;;5053014;28;20179;-76
2022/08/04 10:51:31;;;;;;;0.20;0.20;;;36.30;1.00;;;;;;5053394;28;20182;-76
2022/08/04 10:54:00;;;;;;;0.00;0.00;;;36.70;1.00;;;;;;5053117;28;20267;-77
2022/08/04 10:56:37;;;;;;;0.03;0.03;;;36.70;1.00;;;;;;5053104;28;20167;-75
2022/08/04 10:59:11;;;;;;;0.00;0.00;;;36.20;1.00;;;;;;5053103;28;20174;-76
2022/08/04 11:01:41;;;;;;;0.20;0.20;;;36.40;1.00;;;;;;5053316;28;20194;-76
2022/08/04 11:04:37;;;;;;;0.10;0.10;;;37.00;1.00;;;;;;5052812;28;20238;-76
2022/08/04 11:07:03;;;;;;;0.20;0.20;;;37.00;1.00;;;;;;5050011;28;20214;-76
2022/08/04 11:09:31;;;;;;;0.20;0.20;;;36.70;1.00;;;;;;5052464;28;20263;-76
2022/08/04 11:12:05;;;;;;;0.20;0.20;;;36.40;1.00;;;;;;5052935;28;20175;-76
2022/08/04 11:14:55;;;;;;;0.10;0.10;;;36.70;1.00;;;;;;5052950;28;20262;-76
2022/08/04 11:17:26;;;;;;;0.15;0.15;;;36.90;1.00;;;;;;5052276;28;20408;-75
2022/08/04 11:20:06;;;;;;;0.15;0.15;;;36.20;1.00;;;;;;5052238;28;20672;-76
2022/08/04 11:22:37;;;;;;;0.13;0.13;;;36.40;1.00;;;;;;5052661;28;20605;-76
2022/08/04 11:25:19;;;;;;;0.20;0.20;;;37.00;1.00;;;;;;5052570;28;20298;-76
2022/08/04 11:28:26;;;;;;;0.15;0.15;;;37.10;1.00;;;;;;5052288;28;20542;-75
2022/08/04 11:30:58;;;;;;;0.10;0.10;;;36.90;1.00;;;;;;5051949;28;20179;-76
2022/08/04 11:33:42;;;;;;;0.10;0.10;;;37.50;1.00;;;;;;5052387;28;20199;-76
2022/08/04 11:36:50;;;;;;;0.00;0.00;;;37.70;1.00;;;;;;5052449;28;20182;-77
2022/08/04 11:39:33;;;;;;;0.20;0.20;;;37.90;1.00;;;;;;5023645;28;20199;-76
2022/08/04 11:42:19;;;;;;;0.20;0.20;;;37.90;1.00;;;;;;5052970;28;20636;-76
2022/08/04 11:45:04;;;;;;;0.10;0.10;;;38.40;1.00;;;;;;5052733;28;20214;-76
2022/08/04 11:47:46;;;;;;;0.15;0.15;;;38.10;1.00;;;;;;5052695;28;20522;-76
2022/08/04 11:50:40;;;;;;;0.10;0.10;;;38.00;1.00;;;;;;5051789;28;20205;-77
2022/08/04 11:53:07;;;;;;;0.20;0.20;;;37.90;1.00;;;;;;5045070;28;20408;-75
2022/08/04 11:55:35;;;;;;;0.20;0.20;;;38.00;1.00;;;;;;5052736;28;20179;-75
2022/08/04 11:58:00;;;;;;;0.10;0.10;;;37.80;1.00;;;;;;5052287;28;20181;-76
2022/08/04 12:00:29;;;;;;;0.10;0.10;;;37.80;1.00;;;;;;5051606;28;20175;-76
2022/08/04 12:03:36;;;;;;;0.10;0.10;;;37.10;1.00;;;;;;5051760;28;20206;-75
2022/08/04 12:06:04;;;;;;;0.20;0.20;;;37.60;1.00;;;;;;4990167;28;20185;-76
2022/08/04 12:08:48;;;;;;;0.10;0.10;;;37.70;1.00;;;;;;5039938;28;20233;-76
2022/08/04 12:11:41;;;;;;;0.10;0.10;;;38.10;1.00;;;;;;5051708;28;20175;-76
2022/08/04 12:14:27;;;;;;;0.10;0.10;;;38.60;1.00;;;;;;5052144;28;20238;-76
2022/08/04 12:17:02;;;;;;;0.10;0.10;;;38.60;1.00;;;;;;5052261;28;20187;-75
2022/08/04 12:19:44;;;;;;;0.20;0.20;;;37.20;1.00;;;;;;5053208;28;20668;-76
2022/08/04 12:22:15;;;;;;;0.10;0.10;;;37.20;1.00;;;;;;5051775;28;20171;-76
2022/08/04 12:24:45;;;;;;;0.10;0.10;;;37.00;1.00;;;;;;5051617;28;20218;-76
2022/08/04 12:27:18;;;;;;;0.17;0.17;;;37.10;1.00;;;;;;5051897;28;20190;-76
2022/08/04 12:29:45;;;;;;;0.17;0.17;;;37.30;1.00;;;;;;5050998;28;20175;-76
2022/08/04 12:32:29;;;;;;;0.10;0.10;;;36.90;1.00;;;;;;5051242;28;20195;-76
2022/08/04 12:35:25;;;;;;;0.08;0.08;;;36.50;1.00;;;;;;5051560;28;20637;-76
2022/08/04 12:38:06;;;;;;;0.20;0.20;;;36.90;1.00;;;;;;5051491;28;20191;-75
2022/08/04 12:40:45;;;;;;;0.10;0.10;;;36.80;1.00;;;;;;5050669;28;20666;-76
2022/08/04 12:43:37;;;;;;;0.10;0.10;;;37.00;1.00;;;;;;5051145;28;20612;-75
2022/08/04 12:46:06;;;;;;;0.03;0.03;;;37.20;1.00;;;;;;5051257;28;20179;-75
2022/08/04 12:48:34;;;;;;;0.15;0.15;;;36.80;1.00;;;;;;5051291;28;20297;-77
2022/08/04 12:50:59;;;;;;;0.10;0.10;;;37.00;1.00;;;;;;5050593;28;20279;-76
2022/08/04 12:53:41;;;;;;;0.10;0.10;;;36.80;1.00;;;;;;5051294;28;20238;-76
2022/08/04 12:56:11;;;;;;;0.20;0.20;;;36.40;1.00;;;;;;5051226;28;20209;-75
2022/08/04 12:58:41;;;;;;;0.10;0.10;;;36.60;1.00;;;;;;5050842;28;20171;-77
2022/08/04 13:01:09;;;;;;;0.22;0.22;;;37.00;1.00;;;;;;5050636;28;20171;-76
2022/08/04 13:03:46;;;;;;;0.10;0.10;;;36.50;1.00;;;;;;5050904;28;20250;-76
2022/08/04 13:06:15;;;;;;;0.20;0.20;;;36.80;1.00;;;;;;5051231;28;20178;-76
2022/08/04 13:08:42;;;;;;;0.30;0.30;;;36.70;1.00;;;;;;5051290;28;20187;-76
2022/08/04 13:11:10;;;;;;;0.10;0.10;;;36.10;1.00;;;;;;5050589;28;20182;-76
2022/08/04 13:13:37;;;;;;;0.10;0.10;;;36.40;1.00;;;;;;5050996;28;20275;-76
2022/08/04 13:16:05;;;;;;;0.10;0.10;;;36.60;1.00;;;;;;5050941;28;20210;-77
2022/08/04 13:18:35;;;;;;;0.10;0.10;;;36.60;1.00;;;;;;5050823;28;20182;-76
2022/08/04 13:21:30;;;;;;;0.10;0.10;;;36.90;1.00;;;;;;5049037;28;20187;-75
2022/08/04 13:24:02;;;;;;;0.10;0.10;;;36.60;1.00;;;;;;5038000;28;20223;-76
2022/08/04 13:26:28;;;;;;;0.10;0.10;;;36.80;1.00;;;;;;5050693;28;20198;-76
2022/08/04 13:28:59;;;;;;;0.10;0.10;;;37.50;1.00;;;;;;5050273;28;20656;-75
2022/08/04 13:31:27;;;;;;;0.00;0.00;;;37.00;1.00;;;;;;5050713;28;20172;-76
2022/08/04 13:34:01;;;;;;;0.20;0.20;;;37.20;1.00;;;;;;5050783;28;20210;-75
2022/08/04 13:36:29;;;;;;;0.10;0.10;;;36.70;1.00;;;;;;5050495;28;20189;-75
2022/08/04 13:38:58;;;;;;;0.25;0.25;;;36.40;1.00;;;;;;5050179;28;20678;-76
2022/08/04 13:41:27;;;;;;;0.10;0.10;;;36.40;1.00;;;;;;5050838;28;20182;-76
2022/08/04 13:43:58;;;;;;;0.20;0.20;;;36.80;1.00;;;;;;5050478;28;20237;-76